Time;durP1;ratioP1;P1;durP2;ratioP2;P2;SDS_P1;SDS_P2;PMS_P1;PMS_P2;Temp;Humidity;BMP_temperature;BMP_pressure;BME280_temperature;BME280_humidity;BME280_pressure;Samples;Min_cycle;Max_cycle;Signal;HPM_P1;HPM_P2
2022/04/03 00:01:37;;;;;;;4.80;4.22;;;;;;;2.05;76.68;96823.69;4983918;28;20464;-77
2022/04/03 00:04:02;;;;;;;5.05;4.55;;;;;;;1.99;76.19;96821.22;4992541;28;20054;-75
2022/04/03 00:06:28;;;;;;;4.75;4.15;;;;;;;2.03;76.47;96823.72;5000202;28;20042;-76
2022/04/03 00:08:56;;;;;;;6.15;4.03;;;;;;;2.06;76.56;96827.06;5003493;28;20054;-75
2022/04/03 00:11:22;;;;;;;5.15;3.83;;;;;;;2.00;76.40;96810.97;4992602;28;20096;-76
2022/04/03 00:13:49;;;;;;;;;;;;;;;2.21;76.77;96826.84;4989762;28;20038;-75
2022/04/03 00:16:15;;;;;;;4.13;3.40;;;;;;;2.02;75.35;96816.06;4984697;28;20016;-76
2022/04/03 00:18:40;;;;;;;4.32;3.58;;;;;;;2.03;75.50;96816.03;4989677;28;20489;-76
2022/04/03 00:21:06;;;;;;;3.88;3.13;;;;;;;2.02;75.46;96836.53;4980862;28;20041;-76
2022/04/03 00:23:32;;;;;;;3.58;3.00;;;;;;;1.86;76.09;96792.44;5024775;28;20053;-76
2022/04/03 00:25:57;;;;;;;3.17;2.80;;;;;;;2.16;75.73;96823.53;5008413;28;20077;-76
2022/04/03 00:28:26;;;;;;;3.50;2.80;;;;;;;1.98;74.16;96825.50;5008576;28;20046;-76
2022/04/03 00:30:51;;;;;;;3.80;3.13;;;;;;;1.92;75.61;96837.50;4976432;28;20142;-75
2022/04/03 00:33:17;;;;;;;3.25;2.60;;;;;;;1.79;76.20;96806.22;4993252;28;20042;-76
2022/04/03 00:35:43;;;;;;;;;;;;;;;2.03;76.21;96827.97;4993836;28;20556;-76
2022/04/03 00:38:09;;;;;;;3.45;2.85;;;;;;;1.94;75.27;96831.53;4993049;28;20008;-75
2022/04/03 00:40:35;;;;;;;3.75;2.72;;;;;;;2.01;75.83;96835.66;5007893;28;20037;-75
2022/04/03 00:43:00;;;;;;;3.20;2.30;;;;;;;1.95;75.43;96829.81;4991691;28;20046;-76
2022/04/03 00:45:26;;;;;;;2.85;2.28;;;;;;;1.92;75.73;96828.13;4992721;28;20045;-77
2022/04/03 00:47:53;;;;;;;4.07;2.08;;;;;;;1.83;75.43;96833.38;4992422;28;20510;-76
2022/04/03 00:50:20;;;;;;;3.33;2.58;;;;;;;1.94;76.10;96828.13;5008417;28;20512;-75
2022/04/03 00:52:49;;;;;;;3.28;2.70;;;;;;;1.90;76.04;96832.44;4991308;28;20042;-75
2022/04/03 00:55:15;;;;;;;3.45;2.20;;;;;;;1.98;76.33;96833.16;4991240;28;20036;-76
2022/04/03 00:57:41;;;;;;;2.88;2.03;;;;;;;2.00;76.25;96826.31;4979916;28;20043;-76
2022/04/03 01:00:07;;;;;;;3.10;2.25;;;;;;;1.99;75.85;96836.56;4988933;28;20053;-76
2022/04/03 01:02:33;;;;;;;;;;;;;;;1.99;75.73;96841.69;5008192;28;20042;-76
2022/04/03 01:05:01;;;;;;;2.90;2.22;;;;;;;1.98;75.93;96837.44;5023294;28;19968;-76
2022/04/03 01:07:27;;;;;;;3.03;2.35;;;;;;;1.98;76.17;96827.22;4973027;28;20520;-76
2022/04/03 01:09:53;;;;;;;3.03;2.13;;;;;;;2.09;75.73;96839.81;4972124;28;20042;-76
2022/04/03 01:12:18;;;;;;;3.83;2.45;;;;;;;2.18;75.27;96834.56;4972861;28;20043;-76
2022/04/03 01:14:44;;;;;;;2.90;2.10;;;;;;;2.23;75.01;96835.31;4972206;28;20057;-76
2022/04/03 01:17:12;;;;;;;4.28;2.22;;;;;;;2.21;75.15;96826.84;5002970;28;20043;-76
2022/04/03 01:19:38;;;;;;;2.92;2.17;;;;;;;2.15;74.73;96819.25;5006844;28;20153;-75
2022/04/03 01:22:03;;;;;;;;;;;;;;;2.26;74.60;96840.41;5010688;28;20532;-76
2022/04/03 01:24:30;;;;;;;2.80;2.22;;;;;;;2.20;74.65;96838.78;4982871;28;19914;-76
2022/04/03 01:26:56;;;;;;;3.10;2.40;;;;;;;2.16;74.59;96837.16;5006367;28;20132;-76
2022/04/03 01:29:23;;;;;;;3.10;2.38;;;;;;;2.04;74.51;96838.19;4976910;28;20114;-75
2022/04/03 01:31:49;;;;;;;3.30;2.45;;;;;;;1.95;74.14;96846.00;5007501;28;20045;-76
2022/04/03 01:34:15;;;;;;;3.22;2.50;;;;;;;1.98;74.46;96850.22;4992565;28;20109;-76
2022/04/03 01:36:41;;;;;;;3.17;2.17;;;;;;;2.03;74.60;96858.66;4974019;28;20104;-76
2022/04/03 01:39:06;;;;;;;3.30;2.22;;;;;;;1.99;74.82;96862.97;5007061;28;20038;-76
2022/04/03 01:41:32;;;;;;;2.70;2.17;;;;;;;1.96;74.46;96862.16;4971515;28;20053;-76
2022/04/03 01:43:58;;;;;;;3.65;2.28;;;;;;;1.76;72.97;96845.41;4971462;28;20082;-77
2022/04/03 01:46:23;;;;;;;2.97;1.98;;;;;;;1.85;74.39;96859.78;4986044;28;20417;-76
2022/04/03 01:48:49;;;;;;;2.88;2.13;;;;;;;1.92;74.50;96869.03;4974619;28;20482;-76
2022/04/03 01:51:15;;;;;;;2.92;2.20;;;;;;;1.98;74.63;96866.41;4977062;28;20031;-76
2022/04/03 01:53:41;;;;;;;2.58;2.10;;;;;;;1.82;73.86;96862.38;4990885;28;20042;-76
2022/04/03 01:56:07;;;;;;;2.50;1.90;;;;;;;1.85;74.46;96875.13;5023399;28;20050;-77
2022/04/03 01:58:33;;;;;;;2.58;2.05;;;;;;;1.99;74.38;96865.53;4990435;28;20460;-77
2022/04/03 02:00:59;;;;;;;3.38;2.65;;;;;;;1.89;74.61;96853.75;4990495;28;20073;-76
2022/04/03 02:03:25;;;;;;;3.08;1.90;;;;;;;2.01;74.69;96874.00;5020845;28;20078;-76
2022/04/03 02:05:51;;;;;;;2.97;2.20;;;;;;;1.98;74.06;96876.63;4987464;28;20043;-76
2022/04/03 02:08:16;;;;;;;3.13;2.10;;;;;;;1.88;73.30;96889.53;4987578;28;20410;-75
2022/04/03 02:10:42;;;;;;;2.47;1.95;;;;;;;1.90;73.89;96891.22;4990339;28;20532;-76
2022/04/03 02:13:08;;;;;;;3.15;2.10;;;;;;;1.86;74.49;96889.56;5023305;28;20057;-76
2022/04/03 02:15:34;;;;;;;;;;;;;;;1.97;74.58;96886.84;4991959;28;20045;-76
2022/04/03 02:17:59;;;;;;;2.78;2.10;;;;;;;1.90;74.16;96887.84;4991894;28;20365;-76
2022/04/03 02:20:25;;;;;;;;;;;;;;;1.97;74.85;96892.84;4991061;28;20046;-76
2022/04/03 02:22:52;;;;;;;3.05;2.10;;;;;;;1.85;73.56;96898.13;4984182;28;19925;-77
2022/04/03 02:25:18;;;;;;;2.50;2.05;;;;;;;1.80;73.41;96902.44;4976167;28;20039;-77
2022/04/03 02:27:44;;;;;;;2.72;1.90;;;;;;;1.55;73.92;96870.41;4993562;28;20044;-76
2022/04/03 02:30:10;;;;;;;2.97;2.30;;;;;;;1.90;74.32;96898.91;4995211;28;20089;-76
2022/04/03 02:32:40;;;;;;;;;;;;;;;2.10;74.10;96905.44;4994024;28;20432;-77
2022/04/03 02:35:07;;;;;;;2.88;2.28;;;;;;;2.00;73.02;96910.69;4993617;28;20025;-76
2022/04/03 02:37:33;;;;;;;2.42;2.03;;;;;;;1.88;73.07;96908.31;4993776;28;20089;-76
2022/04/03 02:39:59;;;;;;;2.53;2.13;;;;;;;1.74;72.65;96913.59;4994719;28;20042;-76
2022/04/03 02:42:25;;;;;;;;;;;;;;;1.81;73.29;96914.34;4993883;28;20065;-76
2022/04/03 02:44:51;;;;;;;3.03;2.22;;;;;;;1.70;73.35;96921.34;4979716;28;19960;-77
2022/04/03 02:47:17;;;;;;;3.05;2.38;;;;;;;1.57;73.01;96922.34;4993458;28;20045;-76
2022/04/03 02:49:43;;;;;;;4.00;2.35;;;;;;;1.60;73.23;96929.97;5009676;28;20533;-76
2022/04/03 02:52:09;;;;;;;4.20;2.10;;;;;;;1.69;73.88;96924.72;5026477;28;20508;-78
2022/04/03 02:54:34;;;;;;;2.50;2.15;;;;;;;1.80;73.86;96928.00;5026256;28;20129;-77
2022/04/03 02:57:01;;;;;;;2.72;2.20;;;;;;;1.78;73.62;96924.63;4994422;28;20515;-77
2022/04/03 02:59:27;;;;;;;3.38;2.20;;;;;;;1.82;73.12;96936.50;4993124;28;20046;-77
2022/04/03 03:01:52;;;;;;;2.80;2.20;;;;;;;1.90;72.03;96944.06;4979596;28;20451;-77
2022/04/03 03:04:18;;;;;;;3.17;2.17;;;;;;;1.97;72.95;96953.34;4985728;28;20779;-77
2022/04/03 03:06:44;;;;;;;3.80;2.17;;;;;;;1.98;72.43;96955.03;5020678;28;20100;-77
2022/04/03 03:09:11;;;;;;;2.75;2.13;;;;;;;1.87;71.75;96954.31;4994433;28;20125;-77
2022/04/03 03:11:37;;;;;;;2.88;2.25;;;;;;;1.86;71.87;96945.81;4981662;28;20121;-77
2022/04/03 03:14:02;;;;;;;3.38;2.40;;;;;;;1.93;72.09;96952.56;4993583;28;20045;-76
2022/04/03 03:16:28;;;;;;;3.75;2.55;;;;;;;1.95;71.59;96948.25;4994462;28;20038;-75
2022/04/03 03:18:54;;;;;;;3.70;2.20;;;;;;;1.87;71.06;96934.72;4993772;28;20042;-76
2022/04/03 03:21:21;;;;;;;2.78;2.17;;;;;;;1.94;71.06;96956.78;5009291;28;20050;-76
2022/04/03 03:23:46;;;;;;;2.92;2.17;;;;;;;1.86;71.16;96953.47;4979039;28;20387;-76
2022/04/03 03:26:12;;;;;;;2.97;2.30;;;;;;;1.83;71.26;96961.19;5013340;28;20069;-76
2022/04/03 03:28:38;;;;;;;2.80;2.10;;;;;;;1.62;71.00;96944.44;4994005;28;20096;-76
2022/04/03 03:31:03;;;;;;;3.05;2.35;;;;;;;1.81;71.27;96972.31;5009124;28;20084;-77
2022/04/03 03:33:29;;;;;;;3.15;2.40;;;;;;;1.70;71.00;96959.66;4993946;28;20038;-76
2022/04/03 03:35:55;;;;;;;2.90;2.22;;;;;;;1.74;71.80;96969.84;4993356;28;20120;-77
2022/04/03 03:38:21;;;;;;;3.13;2.33;;;;;;;1.86;71.62;96976.50;5008961;28;20123;-77
2022/04/03 03:40:47;;;;;;;3.10;2.58;;;;;;;1.85;71.16;96971.41;5008810;28;20397;-77
2022/04/03 03:43:13;;;;;;;3.38;2.45;;;;;;;1.75;70.47;96991.97;4993785;28;20034;-76
2022/04/03 03:45:39;;;;;;;3.47;2.33;;;;;;;1.76;69.95;96992.81;5025436;28;20056;-76
2022/04/03 03:48:04;;;;;;;;;;;;;;;1.74;71.05;96990.28;5026179;28;20868;-76
2022/04/03 03:50:30;;;;;;;3.30;2.30;;;;;;;1.74;71.01;96994.53;4993682;28;19914;-77
2022/04/03 03:52:56;;;;;;;2.85;2.20;;;;;;;1.70;71.37;96993.72;4989796;28;20042;-76
2022/04/03 03:55:21;;;;;;;2.72;2.00;;;;;;;1.79;71.13;96997.91;5014318;28;20389;-77
2022/04/03 03:57:47;;;;;;;3.00;2.35;;;;;;;1.82;71.30;97000.38;4992308;28;20129;-76
2022/04/03 04:00:14;;;;;;;2.60;2.05;;;;;;;1.82;71.56;96991.88;4992261;28;20129;-76
2022/04/03 04:02:40;;;;;;;2.80;2.20;;;;;;;1.83;70.92;96996.97;4993331;28;20042;-77
2022/04/03 04:05:07;;;;;;;2.80;2.22;;;;;;;1.91;71.27;97007.94;4993685;28;20370;-79
2022/04/03 04:07:46;;;;;;;2.97;1.70;;;;;;;1.92;71.38;97004.53;4992258;28;20058;-77
2022/04/03 04:10:13;;;;;;;2.63;2.10;;;;;;;1.89;70.71;97002.03;4978419;28;20472;-76
2022/04/03 04:12:42;;;;;;;2.95;2.10;;;;;;;1.87;70.50;97008.84;4992224;28;20034;-76
2022/04/03 04:15:09;;;;;;;4.25;3.13;;;;;;;1.99;70.62;97012.97;4977734;28;20049;-78
2022/04/03 04:17:38;;;;;;;3.63;2.63;;;;;;;1.97;70.44;97012.13;4992366;28;20495;-77
2022/04/03 04:20:17;;;;;;;2.72;2.10;;;;;;;2.01;70.87;97024.00;4978119;28;20498;-77
2022/04/03 04:22:46;;;;;;;3.20;2.40;;;;;;;2.01;69.99;97014.63;4995460;28;20053;-77
2022/04/03 04:25:13;;;;;;;2.67;2.03;;;;;;;1.98;69.48;97030.03;4991299;28;20041;-77
2022/04/03 04:27:40;;;;;;;3.13;2.30;;;;;;;1.92;70.45;97019.84;5003777;28;20074;-77
2022/04/03 04:30:06;;;;;;;2.80;2.20;;;;;;;2.09;69.74;97041.81;4996242;28;20085;-77
2022/04/03 04:32:32;;;;;;;3.55;2.13;;;;;;;2.05;69.74;97033.34;4972742;28;20509;-76
2022/04/03 04:34:57;;;;;;;3.72;2.17;;;;;;;2.08;69.46;97038.44;5017360;28;20062;-77
2022/04/03 04:37:23;;;;;;;2.88;2.08;;;;;;;2.03;69.31;97043.59;4994920;28;20141;-76
2022/04/03 04:39:49;;;;;;;4.95;2.20;;;;;;;2.13;69.45;97030.69;5024514;28;20034;-78
2022/04/03 04:42:15;;;;;;;3.00;2.03;;;;;;;2.06;68.34;97052.09;5007657;28;20050;-77
2022/04/03 04:44:40;;;;;;;2.88;2.03;;;;;;;2.01;69.60;97026.56;5024368;28;20057;-76
2022/04/03 04:47:06;;;;;;;3.30;2.10;;;;;;;2.17;68.55;97055.38;4991950;28;20042;-77
2022/04/03 04:49:32;;;;;;;2.75;1.90;;;;;;;2.37;69.13;97065.34;5008396;28;20030;-76
2022/04/03 04:51:58;;;;;;;2.40;1.90;;;;;;;2.38;68.46;97054.22;5024519;28;20545;-76
2022/04/03 04:54:25;;;;;;;2.97;2.10;;;;;;;2.32;67.07;97062.00;4991920;28;20034;-77
2022/04/03 04:56:51;;;;;;;2.80;1.90;;;;;;;2.42;66.84;97046.50;4991673;28;20053;-76
2022/04/03 04:59:17;;;;;;;3.00;1.90;;;;;;;2.53;66.59;97064.28;5024221;28;20081;-76
2022/04/03 05:01:43;;;;;;;2.63;2.00;;;;;;;2.48;67.48;97069.47;4993111;28;20115;-77
2022/04/03 05:04:08;;;;;;;4.22;2.35;;;;;;;2.28;67.03;97072.25;5024341;28;20042;-77
2022/04/03 05:06:34;;;;;;;3.28;2.00;;;;;;;2.39;67.40;97071.28;4992796;28;20177;-77
2022/04/03 05:09:00;;;;;;;3.35;2.50;;;;;;;2.36;66.99;97076.44;4991114;28;20076;-77
2022/04/03 05:11:26;;;;;;;3.10;2.17;;;;;;;2.16;66.59;97076.72;4991933;28;20168;-78
2022/04/03 05:13:52;;;;;;;3.38;2.22;;;;;;;2.18;67.49;97082.63;5007997;28;20117;-76
2022/04/03 05:16:18;;;;;;;3.72;2.05;;;;;;;2.15;67.01;97077.53;4991545;28;20046;-77
2022/04/03 05:18:43;;;;;;;2.97;2.10;;;;;;;2.27;67.16;97088.47;5024460;28;20046;-78
2022/04/03 05:21:10;;;;;;;3.60;2.20;;;;;;;2.34;67.51;97096.06;4992119;28;20045;-77
2022/04/03 05:23:39;;;;;;;3.38;2.20;;;;;;;2.18;65.77;97101.38;5007997;28;20060;-77
2022/04/03 05:26:05;;;;;;;2.83;2.00;;;;;;;1.97;66.39;97084.59;4964745;28;20046;-78
2022/04/03 05:28:31;;;;;;;3.20;2.30;;;;;;;1.96;66.72;97092.25;5024317;28;20139;-77
2022/04/03 05:30:56;;;;;;;2.78;2.10;;;;;;;2.03;66.53;97120.31;4975642;28;20035;-77
2022/04/03 05:33:22;;;;;;;2.47;1.90;;;;;;;2.35;67.42;97108.84;4973597;28;20066;-77
2022/04/03 05:35:48;;;;;;;;;;;;;;;2.42;67.35;97119.84;5019014;28;20551;-77
2022/04/03 05:38:14;;;;;;;3.00;2.22;;;;;;;2.42;67.05;97133.47;4991306;28;19920;-78
2022/04/03 05:40:40;;;;;;;3.40;2.10;;;;;;;2.48;66.32;97137.69;4991270;28;20043;-78
2022/04/03 05:43:05;;;;;;;3.28;2.50;;;;;;;2.53;67.27;97136.78;4992142;28;20042;-77
2022/04/03 05:45:31;;;;;;;3.58;2.40;;;;;;;2.57;65.93;97131.59;5024223;28;20049;-79
2022/04/03 05:47:57;;;;;;;2.80;2.20;;;;;;;2.34;66.00;97117.41;4991823;28;20476;-78
2022/04/03 05:50:23;;;;;;;3.83;2.65;;;;;;;2.38;66.33;97136.94;4975947;28;20034;-77
2022/04/03 05:52:51;;;;;;;2.53;1.80;;;;;;;2.54;66.55;97141.00;5012487;28;20042;-78
2022/04/03 05:55:18;;;;;;;3.38;2.20;;;;;;;2.49;65.10;97144.50;4987696;28;20054;-77
2022/04/03 05:57:45;;;;;;;2.95;2.10;;;;;;;2.44;65.86;97146.28;4965678;28;20103;-79
2022/04/03 06:00:12;;;;;;;3.75;2.50;;;;;;;2.54;66.21;97152.97;4995381;28;20092;-77
2022/04/03 06:02:55;;;;;;;3.55;2.30;;;;;;;2.73;66.02;97163.81;4986936;28;20053;-76
2022/04/03 06:05:23;;;;;;;3.67;2.45;;;;;;;2.82;65.63;97156.00;4987937;28;20493;-78
2022/04/03 06:07:49;;;;;;;2.97;2.30;;;;;;;2.86;65.82;97160.22;4994669;28;20571;-77
2022/04/03 06:10:15;;;;;;;3.30;2.35;;;;;;;2.83;65.39;97169.66;4994692;28;20038;-78
2022/04/03 06:13:06;;;;;;;4.25;2.15;;;;;;;3.03;66.29;97176.22;4996239;28;20099;-77
2022/04/03 06:15:37;;;;;;;3.30;2.10;;;;;;;3.19;65.10;97173.41;4995060;28;20574;-77
2022/04/03 06:18:15;;;;;;;3.50;1.98;;;;;;;3.19;65.24;97179.38;4994883;28;20165;-80
2022/04/03 06:20:41;;;;;;;2.75;2.08;;;;;;;3.01;64.10;97182.22;4990158;28;20039;-77
2022/04/03 06:23:11;;;;;;;3.38;2.17;;;;;;;3.02;64.66;97187.34;4957907;28;20169;-77
2022/04/03 06:25:37;;;;;;;2.83;1.90;;;;;;;3.15;65.38;97185.41;5006439;28;20046;-79
2022/04/03 06:28:03;;;;;;;2.60;2.00;;;;;;;3.18;64.81;97187.94;5019101;28;20050;-79
2022/04/03 06:30:28;;;;;;;3.17;2.17;;;;;;;3.15;64.87;97182.84;5020591;28;20039;-77
2022/04/03 06:32:54;;;;;;;2.75;2.10;;;;;;;3.19;64.50;97188.78;5027213;28;20041;-77
2022/04/03 06:35:20;;;;;;;;;;;;;;;3.37;65.25;97201.34;5011473;28;20100;-78
2022/04/03 06:37:46;;;;;;;3.03;2.10;;;;;;;3.24;63.72;97198.09;4995260;28;19923;-78
2022/04/03 06:40:13;;;;;;;2.85;1.90;;;;;;;3.30;64.23;97189.50;5010607;28;20065;-79
2022/04/03 06:42:39;;;;;;;5.13;2.10;;;;;;;3.42;63.26;97202.09;4993906;28;20045;-77
2022/04/03 06:45:09;;;;;;;2.88;2.10;;;;;;;3.46;63.93;97213.16;4995730;28;20096;-79
2022/04/03 06:47:36;;;;;;;3.13;2.33;;;;;;;3.40;63.48;97213.28;4994672;28;20049;-76
2022/04/03 06:50:03;;;;;;;2.70;1.90;;;;;;;3.31;64.37;97166.41;4988748;28;20383;-78
2022/04/03 06:52:28;;;;;;;3.65;2.15;;;;;;;3.51;63.09;97191.72;4986910;28;20045;-80
2022/04/03 06:54:54;;;;;;;3.13;2.10;;;;;;;3.55;62.52;97208.75;4981054;28;20501;-76
2022/04/03 06:57:20;;;;;;;3.45;2.70;;;;;;;3.55;62.65;97213.88;4994576;28;20116;-76
2022/04/03 06:59:46;;;;;;;3.92;2.38;;;;;;;3.70;62.66;97215.34;4995031;28;20073;-78
2022/04/03 07:02:11;;;;;;;2.38;1.63;;;;;;;3.74;63.20;97224.69;4994452;28;20042;-78
2022/04/03 07:04:37;;;;;;;3.72;2.17;;;;;;;3.75;61.66;97220.38;4995382;28;20048;-78
2022/04/03 07:07:04;;;;;;;2.88;2.03;;;;;;;3.61;61.65;97199.25;4978314;28;20069;-78
2022/04/03 07:09:30;;;;;;;3.13;2.10;;;;;;;3.82;61.48;97240.78;5007393;28;20485;-78
2022/04/03 07:11:55;;;;;;;3.30;2.05;;;;;;;3.46;61.43;97213.16;4994232;28;20042;-77
2022/04/03 07:14:22;;;;;;;3.50;2.28;;;;;;;3.55;61.71;97231.81;4986909;28;20391;-78
2022/04/03 07:16:48;;;;;;;3.78;2.10;;;;;;;3.53;61.65;97205.38;5014491;28;20049;-79
2022/04/03 07:19:14;;;;;;;2.92;2.05;;;;;;;3.54;60.77;97211.34;5010830;28;20030;-78
2022/04/03 07:21:40;;;;;;;2.90;2.03;;;;;;;3.79;60.13;97238.25;4995982;28;20074;-77
2022/04/03 07:24:06;;;;;;;2.80;1.90;;;;;;;3.95;60.39;97267.09;4966755;28;20089;-80
2022/04/03 07:26:32;;;;;;;2.35;1.75;;;;;;;3.93;60.66;97265.41;5007356;28;20046;-80
2022/04/03 07:28:57;;;;;;;3.17;2.05;;;;;;;3.78;60.05;97246.84;4987292;28;20063;-79
2022/04/03 07:31:23;;;;;;;3.75;2.58;;;;;;;3.78;59.76;97269.06;4955386;29;20150;-79
2022/04/03 07:33:49;;;;;;;4.22;2.70;;;;;;;3.68;58.88;97259.84;4956769;28;20043;-76
2022/04/03 07:36:16;;;;;;;2.40;1.98;;;;;;;3.69;60.51;97259.81;4995687;28;20039;-80
2022/04/03 07:38:42;;;;;;;4.70;2.70;;;;;;;3.59;59.26;97278.75;5005352;28;20034;-77
2022/04/03 07:41:07;;;;;;;;;;;;;;;3.38;57.30;97297.84;5015796;28;20097;-77
2022/04/03 07:43:33;;;;;;;4.47;2.90;;;;;;;3.20;60.45;97285.28;4976641;28;20380;-78
2022/04/03 07:45:59;;;;;;;3.95;2.60;;;;;;;3.32;61.66;97313.31;4961558;28;20417;-77
2022/04/03 07:48:24;;;;;;;8.10;6.03;;;;;;;3.21;60.48;97310.03;5002250;28;20065;-77
2022/04/03 07:50:51;;;;;;;4.55;2.80;;;;;;;3.11;60.39;97309.28;4993899;28;20409;-79
2022/04/03 07:53:18;;;;;;;3.40;2.47;;;;;;;3.37;61.53;97311.53;4977980;28;20038;-76
2022/04/03 07:55:43;;;;;;;4.00;2.78;;;;;;;3.37;61.29;97291.03;5010224;28;20038;-78
2022/04/03 07:58:09;;;;;;;3.63;2.70;;;;;;;3.15;58.72;97299.84;4994030;28;20034;-78
2022/04/03 08:00:35;;;;;;;3.78;2.50;;;;;;;3.08;60.40;97283.72;4996884;28;20046;-77
2022/04/03 08:03:01;;;;;;;3.58;2.50;;;;;;;3.16;60.11;97301.53;5024525;28;20481;-79
2022/04/03 08:05:27;;;;;;;2.70;1.88;;;;;;;3.51;60.35;97345.50;5016954;28;20501;-78
2022/04/03 08:07:55;;;;;;;6.13;3.45;;;;;;;3.49;59.55;97344.69;4956776;28;20062;-78
2022/04/03 08:10:21;;;;;;;3.65;2.60;;;;;;;3.65;58.58;97341.91;4977679;28;20042;-78
2022/04/03 08:12:48;;;;;;;4.20;3.08;;;;;;;3.70;58.19;97348.66;4976873;28;20403;-78
2022/04/03 08:15:14;;;;;;;5.07;3.35;;;;;;;3.73;58.07;97350.34;4990198;28;20101;-78
2022/04/03 08:17:40;;;;;;;3.55;2.40;;;;;;;3.91;58.50;97356.94;4990633;28;20035;-78
2022/04/03 08:20:08;;;;;;;;;;;;;;;4.12;59.30;97350.63;4976095;28;20089;-76
2022/04/03 08:22:34;;;;;;;4.85;2.35;;;;;;;3.88;57.19;97354.41;4988620;28;19918;-77
2022/04/03 08:25:00;;;;;;;4.10;2.47;;;;;;;3.91;57.85;97332.13;5019865;28;20039;-78
2022/04/03 08:27:47;;;;;;;3.97;2.60;;;;;;;4.06;58.23;97352.41;5012394;28;20117;-77
2022/04/03 08:30:23;;;;;;;3.70;2.20;;;;;;;4.04;56.55;97325.09;4992714;28;20046;-77
2022/04/03 08:32:49;;;;;;;4.07;2.70;;;;;;;4.05;55.88;97355.84;4979140;28;20172;-77
2022/04/03 08:35:15;;;;;;;3.85;2.92;;;;;;;4.02;55.90;97342.22;4993851;28;20034;-78
2022/04/03 08:37:41;;;;;;;3.88;2.60;;;;;;;4.10;55.22;97360.06;4993066;28;20054;-77
2022/04/03 08:40:08;;;;;;;3.53;2.33;;;;;;;3.94;54.88;97342.34;4957059;28;20074;-78
2022/04/03 08:42:33;;;;;;;3.20;2.30;;;;;;;4.03;53.72;97344.78;4973146;28;20137;-78
2022/04/03 08:44:59;;;;;;;5.10;2.70;;;;;;;4.28;55.66;97362.34;4988883;28;20110;-78
2022/04/03 08:47:26;;;;;;;5.18;2.80;;;;;;;4.08;54.73;97327.59;4988708;28;20128;-79
2022/04/03 08:49:54;;;;;;;4.47;3.13;;;;;;;4.24;53.73;97328.19;4973112;28;20031;-77
2022/04/03 08:52:20;;;;;;;4.35;2.50;;;;;;;4.66;54.11;97361.72;4972495;28;20367;-78
2022/04/03 08:54:46;;;;;;;3.65;2.22;;;;;;;4.79;53.84;97362.34;4991672;28;20037;-78
2022/04/03 08:57:11;;;;;;;3.58;2.67;;;;;;;4.69;52.31;97341.13;4972478;28;20494;-79
2022/04/03 08:59:37;;;;;;;4.00;2.70;;;;;;;4.91;54.00;97357.00;5007639;28;20093;-78
2022/04/03 09:02:03;;;;;;;;;;;;;;;5.05;50.54;97364.44;5005378;28;20035;-78
2022/04/03 09:04:31;;;;;;;3.72;2.53;;;;;;;5.09;52.74;97360.94;5007914;28;20277;-79
2022/04/03 09:07:00;;;;;;;3.40;2.10;;;;;;;5.20;52.48;97369.28;5005445;28;20038;-79
2022/04/03 09:09:26;;;;;;;4.28;2.40;;;;;;;5.21;52.07;97349.56;4991713;28;20046;-78
2022/04/03 09:12:15;;;;;;;4.72;2.78;;;;;;;5.48;52.09;97373.88;4989393;28;20051;-77
2022/04/03 09:14:51;;;;;;;4.07;2.85;;;;;;;5.47;51.30;97339.59;4989297;28;20041;-78
2022/04/03 09:17:36;;;;;;;3.95;2.72;;;;;;;5.98;50.65;97365.09;4971306;28;20042;-78
2022/04/03 09:20:05;;;;;;;4.35;2.65;;;;;;;6.22;48.75;97368.84;4973618;28;20049;-78
2022/04/03 09:22:32;;;;;;;3.22;2.35;;;;;;;6.51;47.54;97360.44;4974268;28;20401;-78
2022/04/03 09:24:58;;;;;;;3.65;2.22;;;;;;;6.59;47.43;97371.38;4974128;28;20039;-79
2022/04/03 09:27:24;;;;;;;;;;;;;;;6.81;48.62;97378.56;4995893;28;20038;-78
2022/04/03 09:30:07;;;;;;;3.67;2.42;;;;;;;6.82;46.44;97370.78;5004169;28;19917;-77
2022/04/03 09:32:34;;;;;;;3.33;2.22;;;;;;;6.99;46.63;97361.78;4974893;28;20437;-77
2022/04/03 09:34:59;;;;;;;3.00;2.03;;;;;;;7.13;46.01;97373.41;4969975;28;20441;-77
2022/04/03 09:37:26;;;;;;;3.30;2.15;;;;;;;7.03;45.58;97335.88;4973297;28;20039;-77
2022/04/03 09:39:55;;;;;;;3.17;2.45;;;;;;;7.54;45.28;97365.41;4969428;28;20410;-77
2022/04/03 09:42:21;;;;;;;4.13;2.47;;;;;;;8.00;45.90;97366.63;5004257;28;20085;-80
2022/04/03 09:44:47;;;;;;;3.63;2.03;;;;;;;8.21;44.81;97367.72;4985860;28;20031;-79
2022/04/03 09:47:22;;;;;;;;;;;;;;;8.46;46.55;97378.97;4976628;28;20078;-79
2022/04/03 09:49:56;;;;;;;3.22;2.25;;;;;;;8.43;44.83;97379.09;4958119;28;19964;-78
2022/04/03 09:52:34;;;;;;;3.22;2.20;;;;;;;8.38;45.90;97378.38;4958847;28;20049;-77
2022/04/03 09:55:01;;;;;;;3.33;2.60;;;;;;;8.56;43.21;97362.28;4985155;28;20047;-78
2022/04/03 09:57:27;;;;;;;3.75;2.70;;;;;;;9.24;42.77;97357.41;4976757;28;20087;-82
2022/04/03 09:59:54;;;;;;;4.00;2.40;;;;;;;10.54;41.00;97392.19;4986535;28;20212;-79
2022/04/03 10:02:24;;;;;;;3.10;2.20;;;;;;;11.61;37.63;97379.00;4970723;28;20047;-78
2022/04/03 10:04:51;;;;;;;3.58;2.40;;;;;;;12.62;36.01;97392.53;4990256;28;20046;-78
2022/04/03 10:07:17;;;;;;;3.47;2.20;;;;;;;13.36;35.16;97379.31;4968541;28;20055;-77
2022/04/03 10:09:50;;;;;;;3.75;2.30;;;;;;;13.52;34.40;97385.41;4996768;28;20118;-78
2022/04/03 10:12:20;;;;;;;3.20;1.95;;;;;;;13.53;35.74;97407.94;4969985;28;20054;-79
2022/04/03 10:14:47;;;;;;;3.53;2.28;;;;;;;13.07;34.94;97419.81;4969048;28;20043;-78
2022/04/03 10:17:13;;;;;;;3.25;2.33;;;;;;;12.48;33.68;97420.97;4969855;28;20142;-77
2022/04/03 10:19:39;;;;;;;4.40;2.13;;;;;;;12.19;36.72;97415.38;4985813;28;20098;-79
2022/04/03 10:22:40;;;;;;;;;;;;;;;12.18;38.93;97419.69;4986207;28;20075;-77
2022/04/03 10:25:11;;;;;;;3.65;2.70;;;;;;;11.71;35.75;97427.03;4971654;28;20016;-78
2022/04/03 10:27:39;;;;;;;3.05;2.30;;;;;;;11.51;37.84;97434.88;4945184;28;20054;-79
2022/04/03 10:30:06;;;;;;;3.22;2.30;;;;;;;11.23;37.94;97427.41;4974685;28;20488;-78
2022/04/03 10:32:33;;;;;;;3.28;2.13;;;;;;;11.01;37.47;97420.53;4972375;28;20435;-78
2022/04/03 10:35:05;;;;;;;2.85;1.85;;;;;;;11.12;38.27;97440.81;5005005;28;20034;-78
2022/04/03 10:37:35;;;;;;;3.40;2.10;;;;;;;11.11;37.64;97449.53;4953125;28;20043;-78
2022/04/03 10:40:17;;;;;;;3.20;2.03;;;;;;;11.16;38.10;97448.41;5004115;28;20027;-78
2022/04/03 10:42:50;;;;;;;3.00;2.50;;;;;;;10.68;35.85;97449.53;4973624;28;20062;-79
2022/04/03 10:45:18;;;;;;;3.72;2.40;;;;;;;10.32;38.92;97427.66;4973580;28;20098;-78
2022/04/03 10:47:44;;;;;;;4.55;2.40;;;;;;;10.32;38.44;97457.00;4977116;28;20031;-79
2022/04/03 10:50:20;;;;;;;;;;;;;;;10.47;40.27;97463.31;4976604;28;20038;-79
2022/04/03 10:52:46;;;;;;;4.15;3.20;;;;;;;10.22;37.80;97452.16;4977061;28;19918;-78
2022/04/03 10:55:27;;;;;;;;;;;;;;;10.08;38.57;97461.31;5008481;28;20445;-77
2022/04/03 10:58:03;;;;;;;3.80;2.58;;;;;;;9.83;39.43;97465.69;4995376;28;19949;-79
2022/04/03 11:00:33;;;;;;;3.67;2.67;;;;;;;9.95;39.95;97461.84;5004207;28;20047;-79
2022/04/03 11:03:01;;;;;;;3.35;2.70;;;;;;;9.85;39.02;97451.81;4973737;28;20054;-80
2022/04/03 11:05:26;;;;;;;4.55;2.78;;;;;;;9.88;39.14;97469.81;5023758;28;20054;-77
2022/04/03 11:08:04;;;;;;;5.32;2.75;;;;;;;9.97;38.25;97466.03;4998969;28;20063;-80
2022/04/03 11:10:46;;;;;;;4.30;2.90;;;;;;;10.16;39.61;97471.38;4976412;28;20122;-80
2022/04/03 11:13:13;;;;;;;3.63;2.70;;;;;;;10.02;37.98;97474.47;4978680;28;20042;-79
2022/04/03 11:16:09;;;;;;;3.67;2.45;;;;;;;9.86;39.47;97478.56;5007188;28;20037;-79
2022/04/03 11:18:36;;;;;;;4.28;2.63;;;;;;;9.29;39.28;97452.06;4986264;28;20035;-77
2022/04/03 11:21:14;;;;;;;3.25;2.42;;;;;;;9.48;41.13;97491.06;4977020;28;20030;-79
2022/04/03 11:23:47;;;;;;;2.88;2.15;;;;;;;9.23;38.58;97498.84;4973320;28;20122;-79
2022/04/03 11:26:13;;;;;;;3.60;2.78;;;;;;;8.87;39.78;97473.28;4975113;28;20049;-78
2022/04/03 11:28:39;;;;;;;3.45;2.45;;;;;;;8.91;40.18;97505.91;5001427;28;20482;-79
2022/04/03 11:31:04;;;;;;;;;;;;;;;8.88;41.22;97508.56;5011788;28;20044;-78
2022/04/03 11:33:32;;;;;;;3.30;2.10;;;;;;;8.47;40.47;97494.34;4980098;28;19921;-79
2022/04/03 11:36:03;;;;;;;3.38;2.45;;;;;;;8.32;40.80;97518.88;4994501;28;20516;-79
2022/04/03 11:38:36;;;;;;;3.83;2.67;;;;;;;7.95;41.29;97489.84;5010368;28;20405;-79
2022/04/03 11:41:04;;;;;;;4.28;2.70;;;;;;;8.02;41.06;97533.53;4975517;28;20096;-80
2022/04/03 11:43:29;;;;;;;4.88;2.63;;;;;;;7.87;42.06;97523.59;4976853;28;20065;-78
2022/04/03 11:45:56;;;;;;;3.92;2.60;;;;;;;7.70;42.74;97536.13;5016639;28;20070;-80
2022/04/03 11:48:24;;;;;;;4.82;2.97;;;;;;;7.67;42.59;97525.91;5004026;28;20150;-78